Flight Track Log - Related Links

Times and Time Zones

All times are in EDT time to prevent confusion due to time zone crossing. See the AMF1026 flight status page for this flight to view local times or setup timezone preferences in your user account.

Time Position Orientation Groundspeed Altitude Reporting Facility
EDT Latitude Longitude Course Direction KTS MPH feet Rate Location/Type
Thu 08:28:43 PM 42.7256 -73.8053 189° South 155 178 1,100  Level Boston Center
Thu 08:29:13 PM 42.7028 -73.8103 189° South 176 203 1,700 1,451 Climbing Boston Center
Thu 08:30:14 PM 42.7039 -73.8839 271° West 202 232 3,300 1,533 Climbing Boston Center
Thu 08:31:30 PM 42.7111 -73.9717 276° West 213 245 5,200 1,412 Climbing Boston Center
Thu 08:32:30 PM 42.7183 -74.0453 278° West 218 251 6,500 1,450 Climbing Boston Center
Thu 08:33:30 PM 42.7278 -74.1247 279° West 206 237 8,100 1,300 Climbing Boston Center
Thu 08:34:30 PM 42.7183 -74.1922 259° West 206 237 9,100 1,150 Climbing Boston Center
Thu 08:35:30 PM 42.7003 -74.2736 253° West 206 237 10,400 1,150 Climbing Boston Center
Thu 08:36:30 PM 42.6867 -74.3383 254° West 206 237 11,400 1,150 Climbing Boston Center
Thu 08:37:30 PM 42.6686 -74.4167 253° West 206 237 12,700 1,250 Climbing Boston Center
Thu 08:38:30 PM 42.6572 -74.4756 255° West 196 226 13,900 1,200 Climbing Boston Center
Thu 08:39:30 PM 42.6350 -74.5483 247° West 191 220 15,100 1,000 Climbing Boston Center
Thu 08:40:30 PM 42.6194 -74.6042 249° West 185 213 15,900 450 Climbing Boston Center
Thu 08:41:30 PM 42.6053 -74.6856 257° West 193 222 16,000 100 Climbing Boston Center
Thu 08:42:30 PM 42.5769 -74.7550 241° Southwest 219 252 16,100 50 Climbing Boston Center
Thu 08:43:30 PM 42.5522 -74.8386 248° West 241 277 16,100  Level Boston Center
Thu 08:44:42 PM 42.5292 -74.9419 253° West 241 277 16,100  Level Boston Center
Thu 08:45:42 PM 42.5147 -75.0289 257° West 241 277 16,100  Level Boston Center
Thu 08:46:42 PM 42.4981 -75.1183 256° West 241 277 16,100  Level Boston Center
Thu 08:47:42 PM 42.4794 -75.2019 253° West 236 272 16,100 -50 Level Boston Center
Thu 08:48:42 PM 42.4522 -75.2881 247° West 242 278 16,000  Descending Boston Center
Thu 08:50:25 PM 42.3942 -75.4258 240° Southwest 247 284 16,100  Climbing New York Center
Thu 08:51:25 PM 42.3617 -75.5078 242° Southwest 247 284 16,000 -50 Descending New York Center
Thu 08:52:25 PM 42.3336 -75.5897 245° Southwest 242 278 16,000  Level New York Center
Thu 08:53:26 PM 42.3031 -75.6717 243° Southwest 247 284 16,000  Level New York Center
Thu 08:54:26 PM 42.2747 -75.7564 246° West 253 291 16,000  Level New York Center
Thu 08:55:27 PM 42.2503 -75.8386 248° West 253 291 16,000  Level New York Center
Thu 08:56:25 PM 42.2253 -75.9347 251° West 253 291 16,000  Level New York Center
Thu 08:57:25 PM 42.1969 -76.0164 245° Southwest 247 284 16,000  Level New York Center
Thu 08:58:26 PM 42.1681 -76.1036 246° West 252 290 16,000  Level New York Center
Thu 08:59:24 PM 42.1394 -76.1825 244° Southwest 252 290 16,000  Level New York Center
Thu 09:00:25 PM 42.1128 -76.2669 247° West 252 290 16,000  Level New York Center
Thu 09:01:25 PM 42.0839 -76.3483 244° Southwest 247 284 16,000  Level New York Center
Thu 09:02:26 PM 42.0550 -76.4297 244° Southwest 247 284 16,000  Level New York Center
Thu 09:03:27 PM 42.0219 -76.5133 242° Southwest 253 291 16,000  Level New York Center
Thu 09:04:27 PM 41.9908 -76.5944 243° Southwest 253 291 16,000  Level New York Center
Thu 09:05:24 PM 41.9556 -76.6750 240° Southwest 253 291 16,000  Level New York Center
Thu 09:06:26 PM 41.9225 -76.7556 241° Southwest 253 291 16,000  Level New York Center
Thu 09:07:27 PM 41.8911 -76.8392 243° Southwest 253 291 16,000  Level New York Center
Thu 09:08:25 PM 41.8561 -76.9167 239° Southwest 253 291 16,000 51 Level New York Center
Thu 09:09:25 PM 41.8244 -77.0031 244° Southwest 253 291 16,100  Climbing New York Center
Thu 09:10:25 PM 41.7981 -77.0672 241° Southwest 253 291 16,000 -50 Descending New York Center
Thu 09:11:26 PM 41.7642 -77.1586 244° Southwest 253 291 16,000  Level New York Center
Thu 09:13:22 PM 41.7014 -77.3319 244° Southwest 261 300 16,000  Level Cleveland Center
Thu 09:14:22 PM 41.6744 -77.4167 247° West 261 300 16,000  Level Cleveland Center
Thu 09:15:22 PM 41.6539 -77.5039 253° West 261 300 16,000  Level Cleveland Center
Thu 09:16:22 PM 41.6311 -77.5828 249° West 255 293 16,000  Level Cleveland Center
Thu 09:17:22 PM 41.6083 -77.6697 251° West 255 293 16,000  Level Cleveland Center
Thu 09:18:22 PM 41.5853 -77.7569 251° West 255 293 16,000 50 Level Cleveland Center
Thu 09:19:22 PM 41.5603 -77.8414 248° West 250 288 16,100  Climbing Cleveland Center
Thu 09:20:22 PM 41.5269 -77.9258 242° Southwest 255 293 16,000 -50 Descending Cleveland Center
Thu 09:21:22 PM 41.4953 -78.0047 242° Southwest 255 293 16,000 50 Level Cleveland Center
Thu 09:22:22 PM 41.4681 -78.0947 248° West 255 293 16,100 50 Climbing Cleveland Center
Thu 09:23:22 PM 41.4406 -78.1761 246° West 260 299 16,100  Level Cleveland Center
Thu 09:24:22 PM 41.4111 -78.2603 245° Southwest 260 299 16,100  Level Cleveland Center
Thu 09:25:22 PM 41.3836 -78.3469 247° West 260 299 16,100 -50 Level Cleveland Center
Thu 09:26:22 PM 41.3625 -78.4333 252° West 255 293 16,000  Descending Cleveland Center
Thu 09:27:22 PM 41.3389 -78.5172 249° West 255 293 16,100 50 Climbing Cleveland Center
Thu 09:28:22 PM 41.3111 -78.6011 246° West 255 293 16,100  Level Cleveland Center
Thu 09:29:22 PM 41.2814 -78.6875 245° Southwest 255 293 16,100  Level Cleveland Center
Thu 09:30:22 PM 41.2536 -78.7714 246° West 255 293 16,100  Level Cleveland Center
Thu 09:31:22 PM 41.2256 -78.8494 244° Southwest 250 288 16,100  Level Cleveland Center
Thu 09:32:22 PM 41.1936 -78.9442 246° West 255 293 16,100  Level Cleveland Center
Thu 09:33:22 PM 41.1656 -79.0275 246° West 255 293 16,100  Level Cleveland Center
Thu 09:34:22 PM 41.1417 -79.1025 247° West 255 293 16,100 -50 Level Cleveland Center
Thu 09:35:22 PM 41.1178 -79.1886 250° West 255 293 16,000 -50 Descending Cleveland Center
Thu 09:36:22 PM 41.0936 -79.2744 250° West 255 293 16,000  Level Cleveland Center
Thu 09:37:22 PM 41.0717 -79.3631 252° West 255 293 16,000  Level Cleveland Center
Thu 09:38:22 PM 41.0517 -79.4486 253° West 255 293 16,000 50 Level Cleveland Center
Thu 09:39:22 PM 41.0275 -79.5344 250° West 249 287 16,100 50 Climbing Cleveland Center
Thu 09:40:22 PM 41.0033 -79.6203 250° West 249 287 16,100  Level Cleveland Center
Thu 09:41:22 PM 40.9789 -79.7058 249° West 249 287 16,100  Level Cleveland Center
Thu 09:42:22 PM 40.9483 -79.7914 245° Southwest 249 287 16,100  Level Cleveland Center
Thu 09:43:22 PM 40.9217 -79.8769 248° West 254 292 16,100  Level Cleveland Center
Thu 09:44:22 PM 40.8972 -79.9650 250° West 254 292 16,100  Level Cleveland Center
Thu 09:45:22 PM 40.8769 -80.0531 253° West 254 292 16,100  Level Cleveland Center
Thu 09:46:22 PM 40.8500 -80.1411 248° West 254 292 16,100  Level Cleveland Center
Thu 09:47:22 PM 40.8192 -80.2264 244° Southwest 254 292 16,100  Level Cleveland Center
Thu 09:48:22 PM 40.7778 -80.3006 234° Southwest 254 292 16,100  Level Cleveland Center
Thu 09:49:22 PM 40.7278 -80.3858 232° Southwest 267 307 16,100  Level Cleveland Center
Thu 09:50:22 PM 40.6842 -80.4489 228° Southwest 267 307 16,100  Level Cleveland Center
Thu 09:51:22 PM 40.6406 -80.5256 233° Southwest 272 313 16,100  Level Cleveland Center
Thu 09:52:22 PM 40.5944 -80.6050 233° Southwest 272 313 16,100  Level Cleveland Center
Thu 09:53:22 PM 40.5528 -80.6814 234° Southwest 256 295 16,100  Level Cleveland Center
Thu 09:54:22 PM 40.5111 -80.7578 234° Southwest 261 300 16,100  Level Cleveland Center
Thu 09:55:22 PM 40.4714 -80.8369 237° Southwest 266 306 16,100  Level Cleveland Center
Thu 09:56:22 PM 40.4336 -80.9131 237° Southwest 266 306 16,100  Level Cleveland Center
Thu 09:57:22 PM 40.3917 -80.9947 236° Southwest 266 306 16,100  Level Cleveland Center
Thu 09:58:22 PM 40.3539 -81.0736 238° Southwest 266 306 16,100  Level Cleveland Center
Thu 09:59:22 PM 40.3139 -81.1550 237° Southwest 266 306 16,100  Level Cleveland Center
Thu 10:00:32 PM 40.2664 -81.2508 237° Southwest 263 303 16,100  Level Indianapolis Center
Thu 10:01:33 PM 40.2333 -81.3339 242° Southwest 256 295 16,100  Level Indianapolis Center
Thu 10:02:35 PM 40.2039 -81.4208 246° West 258 297 16,100  Level Indianapolis Center
Thu 10:03:36 PM 40.1758 -81.5100 248° West 261 300 16,100  Level Indianapolis Center
Thu 10:04:37 PM 40.1472 -81.5978 247° West 260 299 16,100  Level Indianapolis Center
Thu 10:05:39 PM 40.1192 -81.6842 247° West 259 298 16,100  Level Indianapolis Center
Thu 10:06:40 PM 40.0908 -81.7711 247° West 258 297 16,100  Level Indianapolis Center
Thu 10:07:41 PM 40.0617 -81.8656 248° West 267 307 16,100  Level Indianapolis Center
Thu 10:08:43 PM 40.0336 -81.9536 247° West 264 304 16,100  Level Indianapolis Center
Thu 10:09:44 PM 40.0061 -82.0436 248° West 263 303 16,100 -49 Level Indianapolis Center
Thu 10:10:45 PM 39.9786 -82.1333 248° West 265 305 16,000 -49 Descending Indianapolis Center
Thu 10:11:47 PM 39.9522 -82.2233 249° West 263 303 16,000  Level Indianapolis Center
Thu 10:12:48 PM 39.9247 -82.3133 248° West 265 305 16,000  Level Indianapolis Center
Thu 10:13:49 PM 39.8986 -82.4031 249° West 264 304 16,000  Level Indianapolis Center
Thu 10:14:50 PM 39.8667 -82.5100 249° West 268 308 16,000  Level Indianapolis Center
Thu 10:15:52 PM 39.8403 -82.6014 249° West 268 308 16,000  Level Indianapolis Center
Thu 10:16:53 PM 39.8144 -82.6897 249° West 263 303 16,000  Level Indianapolis Center
Thu 10:17:54 PM 39.7872 -82.7794 248° West 263 303 16,000  Level Indianapolis Center
Thu 10:18:55 PM 39.7597 -82.8697 248° West 265 305 16,000  Level Indianapolis Center
Thu 10:19:57 PM 39.7308 -82.9575 247° West 263 303 16,000  Level Indianapolis Center
Thu 10:20:58 PM 39.6978 -83.0444 244° Southwest 264 304 16,000 -344 Level Indianapolis Center
Thu 10:21:59 PM 39.6644 -83.1325 244° Southwest 266 306 15,300 -1,082 Descending Indianapolis Center
Thu 10:23:00 PM 39.6256 -83.2250 241° Southwest 282 325 13,800 -1,426 Descending Indianapolis Center
Thu 10:24:01 PM 39.5883 -83.3161 242° Southwest 282 325 12,400 -1,377 Descending Indianapolis Center
Thu 10:25:02 PM 39.5536 -83.4053 243° Southwest 274 315 11,000 -732 Descending Indianapolis Center
Thu 10:26:04 PM 39.5181 -83.4928 242° Southwest 272 313 10,900 -98 Descending Indianapolis Center
Thu 10:27:05 PM 39.4836 -83.5764 242° Southwest 264 304 10,800 -738 Descending Indianapolis Center
Thu 10:28:06 PM 39.4483 -83.6608 242° Southwest 263 303 9,400 -1,377 Descending Indianapolis Center
Thu 10:29:07 PM 39.4144 -83.7431 242° Southwest 259 298 8,000 -1,328 Descending Indianapolis Center
Thu 10:30:08 PM 39.3822 -83.8222 242° Southwest 251 289 6,700 -984 Descending Indianapolis Center
Thu 10:31:09 PM 39.3436 -83.8994 237° Southwest 251 289 6,000 -344 Descending Indianapolis Center
Thu 10:32:10 PM 39.3075 -83.9819 241° Southwest 258 297 6,000  Level Indianapolis Center
Thu 10:33:12 PM 39.2767 -84.0742 247° West 268 308 6,000  Level Indianapolis Center
Thu 10:34:13 PM 39.2464 -84.1603 246° West 268 308 6,000  Level Indianapolis Center
Thu 10:35:14 PM 39.1872 -84.2136 215° Southwest 266 306 6,000  Level Indianapolis Center
Thu 10:36:15 PM 39.1242 -84.2553 207° Southwest 259 298 6,000  Level Indianapolis Center
Thu 10:37:16 PM 39.0594 -84.2964 206° Southwest 257 296 6,000  Level Indianapolis Center
Thu 10:38:17 PM 38.9964 -84.3361 206° Southwest 254 292 6,000  Level Indianapolis Center
Thu 10:39:18 PM 38.9394 -84.3744 208° Southwest 240 276 6,000 -146 Level Indianapolis Center
Thu 10:40:20 PM 38.8853 -84.4100 207° Southwest 224 258 5,700 -537 Descending Indianapolis Center
Thu 10:41:21 PM 38.8369 -84.4536 215° Southwest 215 247 4,900 -622 Descending Indianapolis Center
Thu 10:43:33 PM 38.9167 -84.6000 305° West 236 272 3,700 -746 Descending Cincinnati TRACON
Thu 10:44:34 PM 38.9500 -84.6500 311° West 169 194 2,500 -1,041 Descending Cincinnati TRACON
Thu 10:45:34 PM 39.0000 -84.6667 345° North 134 154 1,600 -900 Descending Cincinnati TRACON

Login

Don't have an account? Register now (free) for customized features, flight alerts, and more!